Time;durP1;ratioP1;P1;durP2;ratioP2;P2;SDS_P1;SDS_P2;PMS_P1;PMS_P2;Temp;Humidity;BMP_temperature;BMP_pressure;BME280_temperature;BME280_humidity;BME280_pressure;Samples;Min_cycle;Max_cycle;Signal;HPM_P1;HPM_P2
2022/08/05 00:00:05;;;;;;;2.95;2.00;;;;;;;25.42;40.07;95924.34;10372115;28;98915;-72
2022/08/05 00:05:08;;;;;;;2.80;1.63;;;;;;;25.36;40.33;95928.03;10372931;28;96901;-73
2022/08/05 00:10:33;;;;;;;3.70;2.03;;;;;;;25.33;40.44;95931.19;10372812;28;97048;-73
2022/08/05 00:15:37;;;;;;;2.97;1.92;;;;;;;25.16;39.75;95918.66;10375884;28;97978;-73
2022/08/05 00:20:59;;;;;;;2.72;2.10;;;;;;;25.01;40.49;95921.97;10368662;28;97080;-73
2022/08/05 00:26:04;;;;;;;3.90;2.17;;;;;;;24.69;41.39;95916.41;10370822;28;99302;-73
2022/08/05 00:31:08;;;;;;;3.33;2.00;;;;;;;24.48;41.76;95913.44;10372487;28;98824;-73
2022/08/05 00:36:13;;;;;;;3.75;2.10;;;;;;;24.36;41.90;95918.03;10371732;28;96971;-73
2022/08/05 00:41:37;;;;;;;2.50;1.93;;;;;;;24.12;41.57;95912.88;10369684;28;96749;-73
2022/08/05 00:46:57;;;;;;;4.80;2.03;;;;;;;24.03;42.32;95905.47;10368784;28;97856;-74
2022/08/05 00:52:06;;;;;;;2.50;2.05;;;;;;;24.08;41.73;95913.59;10369072;28;97213;-73
2022/08/05 00:57:10;;;;;;;5.40;2.20;;;;;;;24.08;42.62;95919.72;10370097;28;99523;-74
2022/08/05 01:02:13;;;;;;;3.13;2.10;;;;;;;23.96;43.00;95920.81;10370607;28;98787;-73
2022/08/05 01:07:18;;;;;;;3.58;2.03;;;;;;;23.79;43.50;95916.25;10371608;28;96867;-74
2022/08/05 01:12:25;;;;;;;2.50;1.98;;;;;;;23.53;43.49;95912.31;10374847;28;96874;-73
2022/08/05 01:17:38;;;;;;;2.72;1.90;;;;;;;23.48;43.64;95914.88;10378137;28;97228;-73
2022/08/05 01:22:54;;;;;;;2.90;2.30;;;;;;;23.16;44.52;95907.28;10374695;28;98282;-73
2022/08/05 01:28:17;;;;;;;2.33;2.13;;;;;;;22.88;44.98;95919.50;10377332;28;97714;-74
2022/08/05 01:33:33;;;;;;;2.25;2.05;;;;;;;22.95;43.75;95909.53;10377397;28;99170;-73
2022/08/05 01:38:38;;;;;;;3.83;2.42;;;;;;;23.04;44.05;95901.19;10372163;28;98967;-73
2022/08/05 01:43:43;;;;;;;2.53;2.08;;;;;;;23.03;44.53;95902.22;10372918;28;98892;-73
2022/08/05 01:48:53;;;;;;;2.50;2.17;;;;;;;22.99;45.18;95897.38;10378638;28;99266;-73
2022/08/05 01:53:57;;;;;;;3.67;2.00;;;;;;;22.66;45.74;95908.63;10375295;28;96871;-73
2022/08/05 01:59:09;;;;;;;3.67;2.17;;;;;;;22.35;45.85;95915.06;10376744;28;98380;-73
2022/08/05 02:04:16;;;;;;;3.08;2.30;;;;;;;22.31;46.07;95906.72;10376806;28;98076;-73
2022/08/05 02:09:19;;;;;;;3.42;2.35;;;;;;;22.34;46.09;95900.94;10377172;28;97718;-73
2022/08/05 02:14:28;;;;;;;2.90;1.93;;;;;;;22.15;45.99;95900.22;10375985;28;99290;-74
2022/08/05 02:19:37;;;;;;;3.90;2.10;;;;;;;22.13;45.85;95899.66;10374959;28;97145;-73
2022/08/05 02:24:52;;;;;;;2.50;1.88;;;;;;;22.12;45.57;95898.03;10377727;28;97018;-73
2022/08/05 02:29:57;;;;;;;2.63;2.28;;;;;;;22.21;44.57;95893.19;10375776;28;96761;-73
2022/08/05 02:35:06;;;;;;;4.13;1.85;;;;;;;22.23;44.83;95899.91;10376848;28;96987;-73
2022/08/05 02:40:17;;;;;;;2.60;2.05;;;;;;;22.20;44.38;95905.69;10375821;28;96960;-74
2022/08/05 02:45:22;;;;;;;2.85;2.33;;;;;;;22.11;44.20;95907.06;10372861;28;97882;-73
2022/08/05 02:50:28;;;;;;;2.30;2.08;;;;;;;22.09;43.90;95903.78;10372640;28;98296;-73
2022/08/05 02:55:32;;;;;;;2.38;2.00;;;;;;;22.11;44.28;95909.72;10375343;28;97946;-73
2022/08/05 03:00:59;;;;;;;4.05;2.10;;;;;;;21.85;44.99;95903.75;10371421;28;96913;-73
2022/08/05 03:06:04;;;;;;;2.38;2.05;;;;;;;21.78;45.73;95913.69;10375168;28;97731;-73
2022/08/05 03:11:27;;;;;;;2.67;2.03;;;;;;;21.56;46.69;95904.56;10374008;28;98356;-73
2022/08/05 03:16:52;;;;;;;3.28;2.25;;;;;;;21.36;46.90;95899.50;10368679;28;98843;-73
2022/08/05 03:21:55;;;;;;;3.17;2.38;;;;;;;21.40;45.62;95895.38;10377547;28;96793;-73
2022/08/05 03:27:00;;;;;;;3.58;2.22;;;;;;;21.46;45.89;95897.91;10374050;28;98461;-74
2022/08/05 03:32:06;;;;;;;2.45;2.22;;;;;;;21.50;45.32;95891.13;10373451;28;97534;-73
2022/08/05 03:37:10;;;;;;;2.50;2.30;;;;;;;21.51;45.17;95891.94;10372889;28;96868;-73
2022/08/05 03:42:16;;;;;;;2.70;2.25;;;;;;;21.50;44.27;95893.78;10374922;28;98309;-73
2022/08/05 03:47:20;;;;;;;3.05;1.92;;;;;;;21.27;44.73;95901.63;10368401;28;98883;-73
2022/08/05 03:52:27;;;;;;;4.63;2.40;;;;;;;21.24;45.41;95894.09;10372896;28;96998;-73
2022/08/05 03:57:53;;;;;;;3.80;2.63;;;;;;;21.27;45.18;95896.31;10370003;28;97947;-73
2022/08/05 04:03:01;;;;;;;3.30;2.40;;;;;;;21.34;45.79;95905.03;10373250;28;97454;-73
2022/08/05 04:08:09;;;;;;;5.55;2.63;;;;;;;21.06;47.09;95895.75;10372406;28;99276;-73
2022/08/05 04:13:33;;;;;;;4.18;2.35;;;;;;;20.96;46.55;95906.06;10373835;28;97116;-73
2022/08/05 04:18:56;;;;;;;3.10;2.53;;;;;;;20.77;47.83;95901.81;10375461;28;97010;-73
2022/08/05 04:24:03;;;;;;;8.85;2.95;;;;;;;20.73;46.50;95915.47;10373850;28;98047;-72
2022/08/05 04:29:10;;;;;;;4.32;2.40;;;;;;;20.78;46.00;95914.06;10370721;28;101075;-73
2022/08/05 04:34:14;;;;;;;3.72;2.45;;;;;;;20.84;45.71;95910.50;10370440;28;98596;-73
2022/08/05 04:39:36;;;;;;;2.40;2.20;;;;;;;20.82;45.36;95920.53;10371383;28;97795;-73
2022/08/05 04:44:38;;;;;;;6.82;2.13;;;;;;;20.80;45.47;95917.28;10370893;28;96945;-73
2022/08/05 04:49:43;;;;;;;2.78;2.10;;;;;;;20.89;45.36;95921.28;10373986;28;98799;-73
2022/08/05 04:55:06;;;;;;;2.87;2.37;;;;;;;20.98;45.85;95924.44;10373086;28;97353;-73
2022/08/05 05:00:17;;;;;;;2.53;1.98;;;;;;;20.97;45.24;95933.47;10368453;28;98780;-73
2022/08/05 05:05:26;;;;;;;3.03;2.55;;;;;;;21.12;45.76;95936.56;10378179;28;97964;-73
2022/08/05 05:10:32;;;;;;;2.78;2.20;;;;;;;21.09;47.13;95948.44;10379528;28;97046;-73
2022/08/05 05:15:36;;;;;;;3.55;2.50;;;;;;;21.07;46.72;95939.06;10378901;28;96946;-73
2022/08/05 05:21:01;;;;;;;2.67;1.98;;;;;;;21.15;46.38;95935.28;10381766;28;98400;-73
2022/08/05 05:26:05;;;;;;;4.68;2.67;;;;;;;21.42;46.48;95946.44;10376278;28;97569;-73
2022/08/05 05:31:08;;;;;;;3.55;2.38;;;;;;;21.61;46.38;95942.72;10376600;28;96888;-73
2022/08/05 05:36:12;;;;;;;3.83;2.65;;;;;;;21.62;47.33;95957.66;10376615;28;96796;-73
2022/08/05 05:41:16;;;;;;;6.22;2.90;;;;;;;21.66;47.14;95958.03;10380409;28;96886;-73
2022/08/05 05:46:20;;;;;;;3.67;2.60;;;;;;;21.76;46.84;95968.09;10371560;28;100362;-71
2022/08/05 05:51:25;;;;;;;3.42;2.58;;;;;;;21.73;46.60;95974.69;10374267;28;98055;-71
2022/08/05 05:56:31;;;;;;;8.15;2.83;;;;;;;21.80;47.12;95951.50;10381147;28;97457;-71
2022/08/05 06:01:40;;;;;;;3.83;2.38;;;;;;;21.95;46.34;95966.22;10374997;28;97685;-71
2022/08/05 06:07:00;;;;;;;4.55;2.47;;;;;;;22.16;46.60;95963.06;10375037;28;97287;-71
2022/08/05 06:12:04;;;;;;;5.22;2.78;;;;;;;22.31;47.50;95964.47;10374896;28;96870;-70
2022/08/05 06:17:11;;;;;;;4.45;2.60;;;;;;;22.27;47.42;95974.75;10373883;28;96873;-71
2022/08/05 06:22:29;;;;;;;3.67;2.60;;;;;;;22.39;47.19;95970.28;10370189;28;98111;-71
2022/08/05 06:27:35;;;;;;;3.42;2.65;;;;;;;22.60;47.70;95971.59;10371544;28;101068;-71
2022/08/05 06:32:58;;;;;;;4.68;2.60;;;;;;;22.69;47.65;95971.25;10370262;28;96819;-70
2022/08/05 06:38:02;;;;;;;4.07;3.10;;;;;;;22.82;47.75;95971.00;10365049;28;96964;-67
2022/08/05 06:43:13;;;;;;;4.47;2.45;;;;;;;23.07;47.21;95973.44;10366280;28;98328;-63
2022/08/05 06:48:36;;;;;;;7.65;3.08;;;;;;;23.37;46.76;95973.31;10374819;28;97100;-64
2022/08/05 06:54:03;;;;;;;4.85;3.03;;;;;;;23.68;46.15;95987.25;10375031;28;98894;-64
2022/08/05 06:59:07;;;;;;;5.72;2.75;;;;;;;24.03;45.88;95986.31;10374616;28;96911;-64
2022/08/05 07:04:13;;;;;;;4.18;3.00;;;;;;;24.31;45.50;95995.38;10374043;28;96896;-64
2022/08/05 07:09:22;;;;;;;5.25;2.65;;;;;;;24.52;45.88;95993.06;10374300;28;96789;-65
2022/08/05 07:19:46;;;;;;;5.85;2.80;;;;;;;25.10;44.93;95989.16;10372742;28;97922;-64
2022/08/05 07:25:11;;;;;;;6.60;2.85;;;;;;;25.65;44.88;96000.88;10372707;28;96854;-64
2022/08/05 07:30:35;;;;;;;3.50;2.42;;;;;;;26.14;42.88;96002.75;10366827;28;96781;-64
2022/08/05 07:35:41;;;;;;;6.28;2.40;;;;;;;26.50;41.63;96006.63;10372081;28;96859;-66
2022/08/05 07:41:07;;;;;;;2.78;2.47;;;;;;;26.80;41.04;95999.09;10367687;28;96784;-65
2022/08/05 07:46:32;;;;;;;3.38;2.35;;;;;;;27.03;40.86;96001.41;10373719;28;96730;-65
2022/08/05 07:51:37;;;;;;;4.75;2.60;;;;;;;27.25;40.36;96006.66;10374945;28;96814;-66
2022/08/05 07:56:57;;;;;;;2.85;2.58;;;;;;;27.53;39.95;96001.16;10373727;28;97150;-66
2022/08/05 08:02:16;;;;;;;3.45;2.60;;;;;;;27.88;39.50;96002.41;10373311;28;96775;-65
2022/08/05 08:07:20;;;;;;;2.60;2.40;;;;;;;28.11;39.21;95995.75;10369813;28;97464;-65
2022/08/05 08:12:26;;;;;;;3.35;2.30;;;;;;;28.33;38.86;95998.22;10372340;28;98499;-65
2022/08/05 08:17:48;;;;;;;2.65;2.40;;;;;;;28.58;38.41;96002.81;10372753;28;96846;-67
2022/08/05 08:22:57;;;;;;;2.97;2.65;;;;;;;28.80;37.62;96008.72;10371547;28;96784;-66
2022/08/05 08:28:06;;;;;;;4.15;2.50;;;;;;;28.90;37.31;96002.53;10367538;28;96917;-65
2022/08/05 08:33:20;;;;;;;4.32;2.53;;;;;;;28.99;37.40;96005.53;10370329;28;96904;-65
2022/08/05 08:38:24;;;;;;;4.10;2.65;;;;;;;28.96;37.21;96006.84;10361846;28;96818;-65
2022/08/05 08:43:41;;;;;;;2.85;2.65;;;;;;;28.87;37.68;96003.06;10373130;28;96739;-65
2022/08/05 08:49:05;;;;;;;4.20;2.80;;;;;;;28.75;38.33;96010.59;10372018;28;96762;-67
2022/08/05 08:54:28;;;;;;;3.05;2.35;;;;;;;28.76;38.03;96002.28;10372375;28;96803;-65
2022/08/05 08:59:33;;;;;;;4.40;2.78;;;;;;;28.92;37.78;96005.78;10370586;28;96819;-65
2022/08/05 09:04:37;;;;;;;2.85;2.53;;;;;;;29.04;37.55;96007.41;10371215;28;97170;-66
2022/08/05 09:10:00;;;;;;;4.57;2.70;;;;;;;29.05;36.92;96009.00;10367077;28;96753;-66
2022/08/05 09:15:06;;;;;;;3.90;3.10;;;;;;;28.98;37.18;96004.72;10371558;28;97001;-65
2022/08/05 09:20:11;;;;;;;5.15;2.60;;;;;;;28.92;37.31;96005.78;10370966;28;97703;-65
2022/08/05 09:25:22;;;;;;;3.13;2.60;;;;;;;28.99;37.06;96000.94;10371564;28;97191;-66
2022/08/05 09:30:55;;;;;;;5.73;2.67;;;;;;;29.21;36.66;96001.69;10373041;28;97649;-65
2022/08/05 09:35:59;;;;;;;4.20;2.70;;;;;;;29.38;36.88;95991.44;10379348;28;96644;-65
2022/08/05 09:41:09;;;;;;;4.15;2.60;;;;;;;29.47;36.15;95991.69;10365586;28;96820;-65
2022/08/05 09:46:27;;;;;;;4.35;2.35;;;;;;;29.58;35.39;95985.22;10377571;28;96744;-65
2022/08/05 09:51:36;;;;;;;2.50;2.08;;;;;;;29.71;34.74;95984.63;10376587;28;96714;-65
2022/08/05 09:56:45;;;;;;;4.22;2.40;;;;;;;29.71;34.54;95989.19;10377263;28;97649;-67
2022/08/05 10:01:55;;;;;;;3.70;2.47;;;;;;;29.70;34.33;95972.25;10377454;28;96751;-66
2022/08/05 10:07:00;;;;;;;3.75;2.78;;;;;;;29.83;34.43;95970.81;10375929;28;96674;-66
2022/08/05 10:12:22;;;;;;;2.67;2.47;;;;;;;30.03;34.15;95967.22;10377083;28;96810;-65
2022/08/05 10:17:36;;;;;;;;;;;;;;;30.20;34.18;95957.97;10377130;28;96802;-66
2022/08/05 10:22:44;;;;;;;3.63;2.20;;;;;;;30.17;34.48;95962.06;10376563;28;96819;-66
2022/08/05 10:27:53;;;;;;;3.63;2.67;;;;;;;30.21;33.92;95955.00;10377333;28;96890;-65
2022/08/05 10:33:17;;;;;;;;;;;;;;;30.30;33.90;95947.13;10372328;28;96771;-69
2022/08/05 10:38:21;;;;;;;4.75;2.58;;;;;;;30.44;33.39;95931.13;10376014;28;96734;-66
2022/08/05 10:43:40;;;;;;;4.28;2.50;;;;;;;30.68;33.12;95925.81;10360887;28;96839;-66
2022/08/05 10:48:46;;;;;;;3.97;2.20;;;;;;;30.78;32.86;95917.66;10373985;28;97574;-65
2022/08/05 10:54:01;;;;;;;6.15;2.70;;;;;;;30.98;32.84;95923.91;10375392;28;97911;-65
2022/08/05 10:59:25;;;;;;;;;;;;;;;31.07;32.89;95916.81;10372543;28;96837;-67
2022/08/05 11:04:56;;;;;;;3.85;2.35;;;;;;;31.13;32.13;95894.06;10375516;28;97922;-65
2022/08/05 11:10:00;;;;;;;2.53;2.30;;;;;;;31.29;31.47;95902.00;10363113;28;96897;-65
2022/08/05 11:15:23;;;;;;;3.85;2.42;;;;;;;31.42;31.46;95890.53;10374688;28;96889;-66
2022/08/05 11:20:50;;;;;;;5.20;2.38;;;;;;;31.75;30.64;95893.34;10375609;28;97329;-65
2022/08/05 11:26:04;;;;;;;3.95;2.10;;;;;;;31.99;30.72;95893.28;10370362;28;96804;-66
2022/08/05 11:31:35;;;;;;;2.80;2.20;;;;;;;32.43;29.94;95885.84;10374795;28;96754;-65
2022/08/05 11:36:59;;;;;;;3.85;2.42;;;;;;;32.72;29.37;95881.03;10369127;28;96750;-66
2022/08/05 11:42:09;;;;;;;2.55;2.33;;;;;;;32.82;29.14;95873.81;10374042;28;98188;-69
2022/08/05 11:47:23;;;;;;;3.90;2.20;;;;;;;32.97;28.97;95868.09;10374263;28;97119;-66
2022/08/05 11:52:48;;;;;;;2.33;2.10;;;;;;;33.30;28.08;95868.03;10370112;28;97320;-65
2022/08/05 11:57:56;;;;;;;2.65;2.15;;;;;;;33.50;27.71;95863.28;10373488;28;97275;-70
2022/08/05 12:03:19;;;;;;;4.22;2.38;;;;;;;33.66;27.50;95859.19;10373811;28;96667;-66
2022/08/05 12:08:40;;;;;;;3.97;2.33;;;;;;;33.92;27.33;95859.38;10362378;28;97363;-65
2022/08/05 12:13:54;;;;;;;2.42;1.80;;;;;;;34.27;26.91;95845.31;10373285;28;96750;-66
2022/08/05 12:19:00;;;;;;;3.47;2.22;;;;;;;34.34;26.28;95842.97;10373046;28;97390;-68
2022/08/05 12:24:06;;;;;;;3.92;2.10;;;;;;;34.29;26.63;95840.38;10372807;28;96899;-66
2022/08/05 12:29:13;;;;;;;5.18;2.45;;;;;;;34.38;26.37;95827.66;10372038;28;96822;-66
2022/08/05 12:34:21;;;;;;;4.18;2.13;;;;;;;34.34;26.44;95826.69;10372749;28;97153;-68
2022/08/05 12:39:27;;;;;;;3.40;2.03;;;;;;;34.20;26.61;95824.84;10370415;28;97139;-66
2022/08/05 12:44:40;;;;;;;3.92;2.58;;;;;;;33.94;27.33;95821.94;10372261;28;96902;-67
2022/08/05 12:49:47;;;;;;;2.95;2.50;;;;;;;33.52;28.32;95812.34;10372315;28;96782;-66
2022/08/05 12:55:18;;;;;;;;;;;;;;;33.09;28.56;95814.31;10371977;28;96915;-66
2022/08/05 13:00:28;;;;;;;4.40;2.63;;;;;;;32.81;28.83;95804.59;10372317;28;96821;-68
2022/08/05 13:05:51;;;;;;;3.25;2.60;;;;;;;32.72;29.23;95802.59;10373965;28;98714;-69
2022/08/05 13:11:00;;;;;;;;;;;;;;;32.64;29.38;95794.38;10367056;28;96865;-66
2022/08/05 13:16:11;;;;;;;3.47;2.25;;;;;;;32.63;29.62;95790.06;10378989;28;97537;-67
2022/08/05 13:21:17;;;;;;;4.20;2.30;;;;;;;32.78;29.35;95795.16;10368318;28;96790;-67
2022/08/05 13:26:21;;;;;;;2.97;2.25;;;;;;;32.98;28.79;95783.16;10378717;28;96665;-66
2022/08/05 13:31:31;;;;;;;2.80;2.35;;;;;;;33.08;29.32;95792.97;10373766;28;96886;-66
2022/08/05 13:36:55;;;;;;;3.53;2.22;;;;;;;32.92;29.41;95787.03;10373912;28;97130;-66
2022/08/05 13:41:59;;;;;;;3.95;2.75;;;;;;;32.59;30.78;95803.38;10378357;28;96744;-66
2022/08/05 13:47:02;;;;;;;4.70;2.90;;;;;;;32.13;30.96;95786.06;10378039;28;96843;-68
2022/08/05 13:52:11;;;;;;;4.75;2.58;;;;;;;32.09;31.04;95784.25;10377886;28;96828;-66
2022/08/05 13:57:16;;;;;;;3.40;2.80;;;;;;;32.15;30.89;95793.88;10377803;28;97844;-66
2022/08/05 14:02:20;;;;;;;3.38;2.80;;;;;;;32.18;31.26;95793.28;10377559;28;96881;-66
2022/08/05 14:07:33;;;;;;;3.08;2.65;;;;;;;32.47;31.32;95795.72;10376588;28;96816;-66
2022/08/05 14:12:58;;;;;;;2.88;2.13;;;;;;;32.86;31.48;95804.50;10375997;28;98412;-66
2022/08/05 14:18:02;;;;;;;3.65;2.40;;;;;;;33.07;31.51;95808.41;10375607;28;97139;-66
2022/08/05 14:23:05;;;;;;;2.85;2.28;;;;;;;33.70;30.77;95819.53;10376408;28;97473;-66
2022/08/05 14:28:10;;;;;;;3.33;2.50;;;;;;;34.17;30.32;95806.50;10376977;28;97216;-66
2022/08/05 14:33:30;;;;;;;3.45;2.17;;;;;;;34.76;29.45;95802.81;10373224;28;97948;-66
2022/08/05 14:38:53;;;;;;;3.45;2.20;;;;;;;35.16;29.12;95802.78;10372002;28;97040;-66
2022/08/05 14:43:57;;;;;;;4.72;2.40;;;;;;;35.20;28.61;95802.97;10375705;28;97608;-66
2022/08/05 14:49:20;;;;;;;5.18;2.60;;;;;;;34.57;29.52;95809.25;10371345;28;96991;-67
2022/08/05 14:54:23;;;;;;;3.15;2.78;;;;;;;34.02;30.08;95801.44;10375919;28;97506;-66
2022/08/05 14:59:32;;;;;;;2.70;2.22;;;;;;;33.83;30.02;95796.22;10374226;28;98915;-66
2022/08/05 15:04:37;;;;;;;3.03;2.40;;;;;;;33.52;30.66;95769.03;10361590;28;96785;-67
2022/08/05 15:09:44;;;;;;;4.78;2.40;;;;;;;33.07;31.07;95785.97;10373448;28;97900;-66
2022/08/05 15:14:57;;;;;;;3.35;2.25;;;;;;;33.54;31.32;95818.25;10374562;28;96697;-66
2022/08/05 15:20:00;;;;;;;3.53;2.25;;;;;;;33.94;30.50;95805.69;10373957;28;98752;-63
2022/08/05 15:25:03;;;;;;;5.88;2.70;;;;;;;33.83;31.30;95832.22;10372080;28;98060;-67
2022/08/05 15:30:15;;;;;;;4.28;2.75;;;;;;;33.62;31.58;95850.88;10374088;28;97101;-66
2022/08/05 15:35:18;;;;;;;4.68;2.40;;;;;;;33.20;31.75;95852.00;10373630;28;96980;-64
2022/08/05 15:40:24;;;;;;;3.50;2.08;;;;;;;33.08;31.98;95864.16;10372635;28;96927;-66
2022/08/05 15:45:48;;;;;;;4.60;2.65;;;;;;;32.68;32.64;95865.69;10372444;28;97221;-65
2022/08/05 15:51:03;;;;;;;5.70;2.70;;;;;;;32.31;33.27;95875.50;10373806;28;96707;-66
2022/08/05 15:56:07;;;;;;;3.42;2.63;;;;;;;31.81;33.56;95878.66;10372456;28;97785;-64
2022/08/05 16:01:17;;;;;;;6.22;2.63;;;;;;;31.41;34.42;95856.53;10372808;28;96836;-66
2022/08/05 16:06:30;;;;;;;3.80;2.40;;;;;;;31.31;34.88;95853.94;10370815;28;96783;-65
2022/08/05 16:11:35;;;;;;;5.57;2.67;;;;;;;31.33;34.61;95855.25;10358463;28;97166;-68
2022/08/05 16:16:47;;;;;;;4.43;2.30;;;;;;;31.26;34.87;95849.41;10371548;28;98423;-65
2022/08/05 16:21:50;;;;;;;2.60;2.40;;;;;;;31.28;34.81;95857.22;10372008;28;96821;-67
2022/08/05 16:27:03;;;;;;;3.60;2.50;;;;;;;31.16;35.11;95871.13;10370624;28;97320;-64
2022/08/05 16:32:10;;;;;;;4.20;2.75;;;;;;;31.10;35.38;95889.25;10372182;28;96828;-64
2022/08/05 16:37:13;;;;;;;3.28;2.53;;;;;;;31.13;34.80;95880.59;10359997;28;98271;-64
2022/08/05 16:42:36;;;;;;;4.97;3.38;;;;;;;31.13;34.97;95883.28;10360959;28;97657;-65
2022/08/05 16:47:42;;;;;;;3.47;2.40;;;;;;;31.28;34.79;95885.00;10360207;28;98085;-70
2022/08/05 16:53:02;;;;;;;3.97;2.58;;;;;;;31.77;34.18;95901.94;10360476;28;98294;-65
2022/08/05 16:58:24;;;;;;;3.17;2.30;;;;;;;32.00;33.92;95907.59;10360053;28;97430;-66
2022/08/05 17:03:29;;;;;;;4.20;2.00;;;;;;;32.08;33.96;95904.25;10361268;28;97704;-65
2022/08/05 17:08:33;;;;;;;3.10;2.25;;;;;;;32.00;33.84;95921.09;10371701;28;97332;-64
2022/08/05 17:13:55;;;;;;;;;;;;;;;32.21;33.46;95933.19;10365879;28;96758;-65
2022/08/05 17:19:09;;;;;;;2.97;2.10;;;;;;;32.13;33.56;95934.69;10395077;27;98672;-66
2022/08/05 17:24:12;;;;;;;2.75;2.03;;;;;;;31.72;34.79;95947.94;10368411;28;97053;-65
2022/08/05 17:29:35;;;;;;;7.45;3.80;;;;;;;31.69;34.94;95964.69;10363863;28;98590;-65
2022/08/05 17:34:45;;;;;;;5.85;2.67;;;;;;;30.95;36.30;95995.44;10366181;28;98828;-66
2022/08/05 17:39:50;;;;;;;5.50;2.95;;;;;;;30.22;37.51;96015.91;10365358;28;97180;-67
2022/08/05 17:44:57;;;;;;;5.43;4.50;;;;;;;29.76;38.31;96018.00;10367616;28;97704;-64
2022/08/05 17:50:03;;;;;;;5.90;2.90;;;;;;;29.18;39.22;96027.28;10364328;28;97975;-65
2022/08/05 17:55:12;;;;;;;8.48;5.72;;;;;;;28.97;39.87;96035.38;10369458;28;97007;-66
2022/08/05 18:00:17;;;;;;;4.68;3.13;;;;;;;28.69;40.50;96036.69;10372218;28;98780;-69
2022/08/05 18:05:22;;;;;;;3.67;2.65;;;;;;;28.36;40.66;96046.84;10366122;28;98637;-66
2022/08/05 18:10:24;;;;;;;6.70;3.80;;;;;;;28.29;40.35;96075.03;10371983;28;96932;-69
2022/08/05 18:15:28;;;;;;;5.82;4.57;;;;;;;28.12;40.51;96089.47;10376139;28;97269;-65
2022/08/05 18:20:38;;;;;;;4.57;3.17;;;;;;;28.06;40.72;96093.19;10372755;28;97135;-76
2022/08/05 18:25:41;;;;;;;5.15;2.83;;;;;;;27.76;41.58;96096.56;10372261;28;100324;-76
2022/08/05 18:30:47;;;;;;;4.28;2.50;;;;;;;27.36;42.01;96119.34;10361249;28;97822;-77
2022/08/05 18:35:54;;;;;;;4.50;2.70;;;;;;;27.04;42.63;96137.06;10375670;28;98305;-78
2022/08/05 18:41:07;;;;;;;;;;;;;;;26.90;42.15;96133.97;10364219;28;97892;-76
2022/08/05 18:46:30;;;;;;;4.07;2.70;;;;;;;26.72;43.32;96148.53;10374621;28;96845;-78
2022/08/05 18:57:11;;;;;;;3.58;2.60;;;;;;;26.11;45.02;96174.59;10375709;28;96887;-77
2022/08/05 19:02:17;;;;;;;5.22;2.95;;;;;;;26.05;44.98;96186.28;10374536;28;96821;-76
2022/08/05 19:07:31;;;;;;;4.18;2.70;;;;;;;25.90;45.71;96217.13;10362769;28;96835;-76
2022/08/05 19:12:48;;;;;;;4.28;2.67;;;;;;;25.73;46.25;96235.88;10369654;28;96810;-75
2022/08/05 19:17:51;;;;;;;3.90;2.93;;;;;;;25.75;46.16;96241.78;10369759;28;97065;-75
2022/08/05 19:23:13;;;;;;;4.32;2.80;;;;;;;25.87;45.54;96255.06;10367380;28;98475;-75
2022/08/05 19:28:39;;;;;;;5.55;3.10;;;;;;;25.82;45.71;96257.66;10365091;28;98463;-75
2022/08/05 19:33:43;;;;;;;3.15;2.85;;;;;;;25.74;45.44;96260.78;10367463;28;98513;-74
2022/08/05 19:38:59;;;;;;;3.95;2.92;;;;;;;25.68;45.57;96267.09;10360252;28;99215;-74
2022/08/05 19:44:05;;;;;;;4.30;2.55;;;;;;;25.59;45.74;96275.50;10367004;28;97607;-66
2022/08/05 19:49:15;;;;;;;6.60;3.08;;;;;;;25.56;45.93;96286.69;10366482;28;96871;-66
2022/08/05 19:54:21;;;;;;;4.50;2.63;;;;;;;25.54;45.57;96272.75;10363965;28;97138;-67
2022/08/05 19:59:33;;;;;;;4.93;2.70;;;;;;;25.72;45.57;96305.66;10373500;28;97085;-69
2022/08/05 20:04:56;;;;;;;5.40;2.80;;;;;;;25.69;46.26;96316.88;10362076;28;96975;-67
2022/08/05 20:10:02;;;;;;;5.40;3.20;;;;;;;25.54;47.20;96310.19;10367610;28;98047;-67
2022/08/05 20:15:15;;;;;;;7.65;3.47;;;;;;;25.49;47.60;96331.47;10365696;28;97949;-69
2022/08/05 20:20:43;;;;;;;3.47;2.70;;;;;;;25.39;48.09;96333.94;10363393;28;98689;-64
2022/08/05 20:25:47;;;;;;;5.53;3.03;;;;;;;25.32;47.64;96338.63;10358719;28;98322;-65
2022/08/05 20:30:54;;;;;;;7.45;3.53;;;;;;;25.22;47.68;96341.94;10354724;28;97139;-68
2022/08/05 20:35:58;;;;;;;;;;;;;;;25.29;47.07;96350.63;10355488;28;98379;-65
2022/08/05 20:41:03;;;;;;;8.03;5.00;;;;;;;25.09;47.50;96340.34;10366847;28;97169;-66
2022/08/05 20:46:11;;;;;;;4.95;2.60;;;;;;;24.91;47.67;96348.56;10352302;28;99163;-65
2022/08/05 20:51:26;;;;;;;4.40;3.03;;;;;;;24.66;48.54;96352.25;10352427;28;98712;-64
2022/08/05 20:56:31;;;;;;;4.78;3.72;;;;;;;24.49;48.95;96352.19;10362926;28;96905;-64
2022/08/05 21:01:44;;;;;;;;;;;;;;;24.31;48.38;96355.75;10358369;28;97644;-66
2022/08/05 21:06:47;;;;;;;3.55;2.97;;;;;;;24.18;51.53;96358.69;10364799;28;96949;-65
2022/08/05 21:11:54;;;;;;;7.07;4.18;;;;;;;23.84;54.62;96345.81;10365246;28;98496;-65
2022/08/05 21:17:13;;;;;;;5.85;4.10;;;;;;;23.59;55.54;96348.66;10366172;28;97328;-65
2022/08/05 21:22:16;;;;;;;5.97;3.60;;;;;;;23.28;56.69;96355.84;10361137;28;96834;-66
2022/08/05 21:27:26;;;;;;;4.82;3.25;;;;;;;23.16;57.52;96354.97;10367439;28;96819;-66
2022/08/05 21:32:40;;;;;;;9.98;4.13;;;;;;;23.01;57.42;96358.00;10369160;28;96758;-65
2022/08/05 21:37:44;;;;;;;;;;;;;;;22.94;56.64;96354.59;10372402;28;97979;-65
2022/08/05 21:42:56;;;;;;;4.82;3.25;;;;;;;22.88;57.58;96334.19;10375416;28;98701;-65
2022/08/05 21:48:01;;;;;;;5.03;3.75;;;;;;;22.64;58.87;96336.72;10370389;28;98670;-65
2022/08/05 21:53:10;;;;;;;5.60;3.58;;;;;;;22.43;59.57;96329.94;10372303;28;98931;-64
2022/08/05 21:58:21;;;;;;;7.93;3.65;;;;;;;22.22;60.48;96331.97;10374144;28;96848;-66
2022/08/05 22:03:33;;;;;;;6.30;3.58;;;;;;;22.36;59.84;96345.16;10365126;28;98746;-63
2022/08/05 22:08:54;;;;;;;6.80;4.00;;;;;;;22.46;59.33;96348.16;10376391;28;98605;-65
2022/08/05 22:14:00;;;;;;;5.40;3.60;;;;;;;22.63;58.78;96335.91;10376613;28;96728;-64
2022/08/05 22:19:23;;;;;;;5.50;3.47;;;;;;;22.78;58.27;96338.19;10373766;28;97346;-69
2022/08/05 22:30:13;;;;;;;;;;;;;;;22.70;57.70;96358.97;10371461;28;96783;-65
2022/08/05 22:35:18;;;;;;;4.90;3.10;;;;;;;22.64;58.22;96352.69;10365006;28;99182;-64
2022/08/05 22:40:25;;;;;;;4.38;2.95;;;;;;;22.53;58.41;96350.78;10365887;28;98433;-64
2022/08/05 22:45:33;;;;;;;6.75;3.55;;;;;;;22.47;58.71;96346.31;10372426;28;96945;-64
2022/08/05 22:50:38;;;;;;;4.93;3.70;;;;;;;22.35;59.27;96348.84;10368537;28;96737;-64
2022/08/05 22:55:49;;;;;;;4.97;3.53;;;;;;;22.36;59.19;96345.97;10367106;28;99150;-64
2022/08/05 23:01:02;;;;;;;5.90;3.90;;;;;;;22.35;59.44;96341.69;10366988;28;97323;-66
2022/08/05 23:06:08;;;;;;;5.90;3.38;;;;;;;22.38;59.35;96335.91;10367817;28;96917;-64
2022/08/05 23:11:11;;;;;;;4.27;3.80;;;;;;;22.30;59.37;96351.34;10359821;28;99544;-63
2022/08/05 23:16:16;;;;;;;4.32;3.45;;;;;;;22.27;59.47;96351.81;10368587;28;97049;-63
2022/08/05 23:21:35;;;;;;;4.88;3.75;;;;;;;21.92;60.58;96346.97;10367813;28;97207;-63
2022/08/05 23:26:49;;;;;;;;;;;;;;;21.62;60.40;96344.94;10369415;28;98490;-63
2022/08/05 23:31:53;;;;;;;7.07;3.97;;;;;;;21.46;61.53;96347.03;10365845;28;98036;-63
2022/08/05 23:36:58;;;;;;;5.35;3.80;;;;;;;21.39;61.37;96340.97;10369205;28;97557;-64
2022/08/05 23:42:02;;;;;;;4.88;3.30;;;;;;;21.32;61.85;96346.31;10366653;28;98652;-63
2022/08/05 23:47:11;;;;;;;5.25;3.45;;;;;;;21.19;62.45;96350.88;10372318;28;98417;-63
2022/08/05 23:52:27;;;;;;;5.43;3.40;;;;;;;21.23;62.72;96349.44;10371008;28;96805;-67
2022/08/05 23:57:32;;;;;;;5.40;3.45;;;;;;;21.12;62.12;96351.72;10361588;28;100199;-63
